Time;durP1;ratioP1;P1;durP2;ratioP2;P2;SDS_P1;SDS_P2;PMS_P1;PMS_P2;Temp;Humidity;BMP_temperature;BMP_pressure;BME280_temperature;BME280_humidity;BME280_pressure;Samples;Min_cycle;Max_cycle;Signal;HPM_P1;HPM_P2
2023/12/03 00:02:53;;;;;;;22.92;15.35;;;15.00;64.60;;;;;;10342668;28;20434;-60
2023/12/03 00:07:54;;;;;;;21.10;16.52;;;15.00;64.50;;;;;;10325558;28;20433;-60
2023/12/03 00:12:55;;;;;;;20.83;16.15;;;15.00;64.60;;;;;;10342271;28;20030;-60
2023/12/03 00:17:56;;;;;;;19.20;14.15;;;15.00;64.50;;;;;;10377929;28;20052;-60
2023/12/03 00:22:57;;;;;;;18.77;14.32;;;15.00;64.50;;;;;;10367817;28;20370;-61
2023/12/03 00:27:57;;;;;;;17.73;13.82;;;15.00;64.50;;;;;;10373517;28;20030;-60
2023/12/03 00:32:58;;;;;;;18.23;14.93;;;14.90;64.40;;;;;;10382421;28;20026;-60
2023/12/03 00:37:59;;;;;;;16.02;13.80;;;14.90;64.50;;;;;;10375207;28;20030;-60
2023/12/03 00:43:00;;;;;;;19.00;13.32;;;14.90;64.50;;;;;;10371930;28;20029;-60
2023/12/03 00:48:01;;;;;;;18.15;13.40;;;14.90;64.60;;;;;;10349447;28;20036;-60
2023/12/03 00:53:01;;;;;;;18.98;13.85;;;14.80;64.50;;;;;;10334435;28;20077;-60
2023/12/03 00:58:02;;;;;;;18.33;13.55;;;14.90;64.60;;;;;;10332800;28;20050;-60
2023/12/03 01:03:03;;;;;;;19.25;12.80;;;14.80;64.60;;;;;;10334227;28;20114;-60
2023/12/03 01:08:04;;;;;;;19.52;13.30;;;14.80;64.60;;;;;;10333736;28;20038;-60
2023/12/03 01:13:05;;;;;;;22.13;14.02;;;14.80;64.70;;;;;;10333765;28;20106;-60
2023/12/03 01:18:05;;;;;;;18.73;13.35;;;14.80;64.80;;;;;;10385650;28;20152;-60
2023/12/03 01:23:06;;;;;;;18.77;13.40;;;14.80;64.70;;;;;;10374289;28;20033;-60
2023/12/03 01:28:07;;;;;;;17.00;11.88;;;14.80;64.80;;;;;;10371931;28;20038;-60
2023/12/03 01:33:07;;;;;;;18.23;12.50;;;14.70;64.70;;;;;;10380512;28;20041;-60
2023/12/03 01:38:08;;;;;;;16.98;12.65;;;14.70;64.60;;;;;;10371388;28;20030;-61
2023/12/03 01:43:09;;;;;;;17.27;13.07;;;14.70;64.70;;;;;;10371891;28;20038;-60
2023/12/03 01:48:10;;;;;;;17.25;12.52;;;14.70;64.70;;;;;;10370974;28;20060;-60
2023/12/03 01:53:11;;;;;;;16.38;12.52;;;14.70;64.70;;;;;;10371597;28;20026;-60
2023/12/03 01:58:12;;;;;;;16.77;12.25;;;14.70;64.80;;;;;;10370856;28;20065;-60
2023/12/03 02:03:13;;;;;;;16.05;11.68;;;14.70;64.80;;;;;;10371173;28;20037;-59
2023/12/03 02:08:13;;;;;;;15.95;11.25;;;14.70;64.80;;;;;;10370718;28;20038;-60
2023/12/03 02:13:15;;;;;;;16.92;11.98;;;14.60;64.70;;;;;;10371976;28;20030;-60
2023/12/03 02:18:15;;;;;;;15.93;11.98;;;14.60;64.80;;;;;;10370158;28;20227;-60
2023/12/03 02:23:16;;;;;;;20.13;12.50;;;14.60;64.70;;;;;;10370173;28;20037;-60
2023/12/03 02:28:18;;;;;;;16.67;11.48;;;14.60;64.60;;;;;;10369665;28;20026;-60
2023/12/03 02:33:19;;;;;;;16.90;11.73;;;14.60;64.60;;;;;;10369608;28;20385;-60
2023/12/03 02:38:19;;;;;;;16.02;12.43;;;14.60;64.60;;;;;;10370579;28;20030;-60
2023/12/03 02:43:20;;;;;;;17.67;13.20;;;14.50;65.20;;;;;;10359352;28;20026;-60
2023/12/03 02:48:21;;;;;;;17.33;12.30;;;14.50;64.70;;;;;;10369859;28;20037;-60
2023/12/03 02:53:21;;;;;;;17.92;12.25;;;14.50;64.70;;;;;;10368939;28;20018;-60
2023/12/03 02:58:22;;;;;;;17.77;11.63;;;14.50;64.40;;;;;;10368763;28;20054;-60
2023/12/03 03:03:23;;;;;;;15.38;11.95;;;14.50;64.50;;;;;;10368524;28;20133;-60
2023/12/03 03:08:23;;;;;;;14.43;10.85;;;14.50;64.50;;;;;;10370019;28;20037;-60
2023/12/03 03:13:24;;;;;;;15.63;10.75;;;14.50;64.80;;;;;;10351219;28;20029;-60
2023/12/03 03:18:25;;;;;;;14.82;10.55;;;14.50;64.70;;;;;;10369489;28;20501;-60
2023/12/03 03:23:25;;;;;;;17.08;10.82;;;14.70;64.20;;;;;;10368956;28;20029;-60
2023/12/03 03:28:26;;;;;;;14.63;11.43;;;14.90;63.60;;;;;;10369375;28;20030;-60
2023/12/03 03:33:27;;;;;;;16.15;9.77;;;15.20;62.60;;;;;;10376389;28;20083;-60
2023/12/03 03:38:27;;;;;;;13.48;9.60;;;15.50;61.80;;;;;;10367704;28;20033;-60
2023/12/03 03:43:28;;;;;;;14.20;9.48;;;15.80;61.10;;;;;;10368103;28;20674;-60
2023/12/03 03:48:30;;;;;;;13.55;10.05;;;16.00;60.50;;;;;;10367073;28;20049;-60
2023/12/03 03:53:30;;;;;;;14.25;9.90;;;16.20;59.90;;;;;;10366994;28;20026;-60
2023/12/03 03:58:31;;;;;;;12.95;9.82;;;16.40;59.50;;;;;;10367966;28;20072;-60
2023/12/03 04:03:32;;;;;;;12.05;9.30;;;16.50;59.00;;;;;;10367382;28;20116;-60
2023/12/03 04:08:33;;;;;;;12.07;8.82;;;16.70;58.60;;;;;;10366440;28;20088;-61
2023/12/03 04:13:35;;;;;;;11.20;8.48;;;16.80;58.20;;;;;;10369434;28;20113;-60
2023/12/03 04:18:37;;;;;;;11.23;9.38;;;17.00;57.90;;;;;;10366665;28;20499;-60
2023/12/03 04:23:38;;;;;;;11.15;8.38;;;17.10;57.70;;;;;;10367400;28;20101;-60
2023/12/03 04:28:41;;;;;;;10.73;7.88;;;17.20;57.40;;;;;;10348296;28;20035;-61
2023/12/03 04:33:41;;;;;;;10.57;8.00;;;17.30;57.20;;;;;;10366319;28;20536;-60
2023/12/03 04:38:43;;;;;;;11.70;8.07;;;17.40;56.90;;;;;;10365656;28;20036;-61
2023/12/03 04:43:43;;;;;;;11.32;8.40;;;17.50;56.70;;;;;;10363535;28;20113;-61
2023/12/03 04:48:44;;;;;;;10.02;7.75;;;17.60;56.70;;;;;;10361492;28;20653;-61
2023/12/03 04:53:45;;;;;;;10.35;7.82;;;17.60;56.50;;;;;;10343670;28;20337;-60
2023/12/03 04:58:45;;;;;;;10.63;7.63;;;17.70;56.50;;;;;;10358810;28;20046;-60
2023/12/03 05:03:46;;;;;;;9.70;7.43;;;17.80;56.30;;;;;;10357846;28;20584;-59
2023/12/03 05:08:47;;;;;;;9.35;6.97;;;17.80;56.30;;;;;;10359113;28;20162;-60
2023/12/03 05:13:47;;;;;;;10.02;7.72;;;17.90;56.20;;;;;;10367880;28;20370;-60
2023/12/03 05:18:48;;;;;;;9.02;6.43;;;18.00;55.90;;;;;;10370582;28;20045;-60
2023/12/03 05:23:49;;;;;;;8.50;6.28;;;18.00;56.60;;;;;;10366239;28;20029;-61
2023/12/03 05:28:50;;;;;;;8.32;6.47;;;18.10;56.00;;;;;;10364740;28;20042;-60
2023/12/03 05:33:50;;;;;;;8.57;6.82;;;18.10;55.90;;;;;;10376073;28;20037;-60
2023/12/03 05:38:52;;;;;;;8.95;6.18;;;18.20;55.70;;;;;;10359298;28;20105;-60
2023/12/03 05:43:53;;;;;;;8.98;5.82;;;18.20;55.60;;;;;;10352904;28;20037;-61
2023/12/03 05:48:54;;;;;;;7.63;6.03;;;18.20;55.70;;;;;;10368005;28;20037;-61
2023/12/03 05:53:55;;;;;;;9.35;6.28;;;18.20;55.90;;;;;;10371529;28;20034;-62
2023/12/03 05:58:55;;;;;;;10.55;6.35;;;18.20;55.70;;;;;;10371069;28;20053;-62
2023/12/03 06:03:56;;;;;;;9.00;6.40;;;18.00;56.30;;;;;;10367735;28;20489;-61
2023/12/03 06:08:57;;;;;;;10.88;5.70;;;18.10;56.30;;;;;;10369596;28;20547;-63
2023/12/03 06:13:58;;;;;;;11.30;6.75;;;18.20;56.00;;;;;;10362833;28;20025;-59
2023/12/03 06:18:59;;;;;;;8.52;5.93;;;18.10;56.70;;;;;;10371826;28;20040;-60
2023/12/03 06:23:59;;;;;;;20.25;8.02;;;18.20;56.80;;;;;;10368984;28;20034;-60
2023/12/03 06:29:00;;;;;;;13.68;6.75;;;18.20;57.60;;;;;;10371686;28;20388;-58
2023/12/03 06:34:01;;;;;;;12.07;5.60;;;18.30;58.20;;;;;;10375526;28;20109;-61
2023/12/03 06:39:02;;;;;;;13.43;5.97;;;18.50;57.80;;;;;;10371192;28;20055;-59
2023/12/03 06:44:03;;;;;;;20.67;6.40;;;18.60;57.80;;;;;;10385626;28;20084;-62
2023/12/03 06:49:03;;;;;;;14.00;5.50;;;18.60;57.50;;;;;;10363410;28;20049;-61
2023/12/03 06:54:06;;;;;;;13.57;5.13;;;18.60;57.90;;;;;;10330874;28;20023;-61
2023/12/03 06:59:07;;;;;;;11.55;6.03;;;18.50;58.10;;;;;;10357230;28;20488;-62
2023/12/03 07:04:08;;;;;;;20.55;7.28;;;18.50;57.70;;;;;;10367688;28;20107;-62
2023/12/03 07:09:11;;;;;;;12.18;5.72;;;18.50;57.80;;;;;;10369798;28;20044;-60
2023/12/03 07:14:12;;;;;;;14.55;6.38;;;18.20;58.80;;;;;;10365922;28;20025;-62
2023/12/03 07:19:13;;;;;;;13.00;5.85;;;17.90;59.50;;;;;;10369308;28;20417;-61
2023/12/03 07:24:13;;;;;;;18.50;6.20;;;17.90;58.90;;;;;;10368981;28;20112;-63
2023/12/03 07:29:17;;;;;;;25.30;7.18;;;17.80;59.30;;;;;;10372327;28;20412;-61
2023/12/03 07:34:17;;;;;;;25.88;6.40;;;17.80;59.20;;;;;;10353918;28;20026;-63
2023/12/03 07:39:19;;;;;;;23.40;6.68;;;17.80;59.10;;;;;;10344044;28;20030;-61
2023/12/03 07:44:21;;;;;;;17.27;6.15;;;17.70;59.50;;;;;;10356683;28;20065;-60
2023/12/03 07:49:22;;;;;;;19.33;7.32;;;17.70;59.10;;;;;;10326572;28;20026;-63
2023/12/03 07:54:22;;;;;;;23.63;7.47;;;17.60;59.10;;;;;;10325886;28;20030;-61
2023/12/03 07:59:23;;;;;;;30.60;8.82;;;17.60;59.40;;;;;;10326216;28;20054;-60
2023/12/03 08:04:24;;;;;;;22.30;6.70;;;17.50;59.60;;;;;;10325477;28;20053;-56
2023/12/03 08:09:25;;;;;;;22.75;8.20;;;17.60;59.30;;;;;;10326815;28;20034;-60
2023/12/03 08:14:25;;;;;;;19.25;8.65;;;17.50;59.00;;;;;;10334120;28;20470;-60
2023/12/03 08:19:26;;;;;;;17.83;8.07;;;17.60;58.40;;;;;;10365332;28;20393;-60
2023/12/03 08:24:27;;;;;;;25.05;7.97;;;17.60;58.30;;;;;;10366600;28;20033;-59
2023/12/03 08:29:28;;;;;;;13.95;8.90;;;17.60;58.30;;;;;;10372099;28;20033;-59
2023/12/03 08:34:28;;;;;;;15.82;8.05;;;17.60;58.10;;;;;;10368029;28;20409;-59
2023/12/03 08:39:29;;;;;;;14.55;7.30;;;17.70;58.20;;;;;;10365589;28;20030;-59
2023/12/03 08:44:32;;;;;;;15.05;7.38;;;17.70;58.10;;;;;;10365968;28;20032;-59
2023/12/03 08:49:33;;;;;;;18.65;7.53;;;17.70;57.90;;;;;;10371915;28;20084;-61
2023/12/03 08:54:34;;;;;;;13.10;6.65;;;17.70;58.00;;;;;;10372902;28;20018;-59
2023/12/03 08:59:37;;;;;;;15.57;6.97;;;17.70;58.10;;;;;;10373041;28;20053;-59
2023/12/03 09:04:38;;;;;;;10.70;5.97;;;17.70;58.00;;;;;;10371778;28;20033;-59
2023/12/03 09:09:42;;;;;;;11.35;6.85;;;17.60;58.10;;;;;;10373584;28;20394;-58
2023/12/03 09:14:43;;;;;;;14.35;6.75;;;17.60;58.30;;;;;;10371957;28;20061;-60
2023/12/03 09:19:44;;;;;;;9.23;6.15;;;17.60;58.40;;;;;;10388366;28;20041;-59
2023/12/03 09:24:45;;;;;;;11.05;6.10;;;17.50;58.40;;;;;;10372482;28;20109;-60
2023/12/03 09:29:46;;;;;;;13.75;5.45;;;17.50;58.50;;;;;;10379327;28;20037;-60
2023/12/03 09:34:46;;;;;;;10.43;6.22;;;17.50;58.40;;;;;;10372574;28;20355;-59
2023/12/03 09:39:47;;;;;;;7.75;4.75;;;17.60;58.40;;;;;;10372661;28;20046;-59
2023/12/03 09:45:04;;;;;;;9.20;5.38;;;17.50;58.50;;;;;;10363925;28;20053;-60
2023/12/03 09:50:06;;;;;;;8.00;5.35;;;17.50;58.50;;;;;;10372682;28;20040;-58
2023/12/03 09:55:07;;;;;;;10.38;5.85;;;17.40;58.80;;;;;;10371573;28;20038;-59
2023/12/03 10:00:09;;;;;;;8.05;4.78;;;17.30;59.00;;;;;;10371242;28;20056;-60
2023/12/03 10:05:10;;;;;;;7.82;5.18;;;17.20;59.50;;;;;;10369654;28;20057;-59
2023/12/03 10:10:13;;;;;;;7.95;4.97;;;17.20;59.80;;;;;;10370080;28;20497;-59
2023/12/03 10:15:14;;;;;;;7.40;5.32;;;17.20;59.70;;;;;;10370232;28;20743;-60
2023/12/03 10:20:26;;;;;;;6.97;4.43;;;17.10;59.60;;;;;;10367235;28;20037;-60
2023/12/03 10:25:36;;;;;;;12.40;5.22;;;17.10;59.80;;;;;;10365748;28;20048;-58
2023/12/03 10:30:37;;;;;;;26.38;6.07;;;17.20;59.70;;;;;;10379178;28;20038;-59
2023/12/03 10:35:37;;;;;;;15.57;4.93;;;17.40;59.50;;;;;;10368365;28;20034;-57
2023/12/03 10:40:39;;;;;;;14.48;4.97;;;17.20;60.80;;;;;;10370360;28;20034;-58
2023/12/03 10:45:40;;;;;;;11.40;5.25;;;17.30;61.00;;;;;;10384408;28;20030;-61
2023/12/03 10:50:45;;;;;;;7.78;4.80;;;17.20;61.60;;;;;;10367821;28;20018;-60
2023/12/03 10:55:48;;;;;;;7.10;4.13;;;17.10;62.10;;;;;;10362419;28;20046;-57
2023/12/03 11:00:58;;;;;;;7.30;4.18;;;17.00;62.30;;;;;;10362198;28;20030;-60
2023/12/03 11:06:04;;;;;;;7.57;3.88;;;16.90;62.50;;;;;;10335198;28;20038;-61
2023/12/03 11:11:08;;;;;;;11.93;3.67;;;16.70;62.80;;;;;;10334095;28;20037;-60
2023/12/03 11:16:10;;;;;;;8.68;4.25;;;16.60;62.40;;;;;;10364475;28;20461;-60
2023/12/03 11:21:22;;;;;;;8.50;4.07;;;16.60;62.30;;;;;;10367406;28;20030;-61
2023/12/03 11:26:25;;;;;;;8.25;4.40;;;16.60;62.20;;;;;;10366842;28;20042;-59
2023/12/03 11:31:26;;;;;;;5.45;3.60;;;16.60;61.90;;;;;;10374832;28;20037;-60
2023/12/03 11:36:52;;;;;;;6.60;3.88;;;16.60;61.50;;;;;;10366395;28;20030;-60
2023/12/03 11:42:00;;;;;;;6.82;4.20;;;16.70;61.50;;;;;;10367557;28;20088;-60
2023/12/03 11:47:07;;;;;;;8.23;4.32;;;16.80;61.10;;;;;;10366428;28;20021;-59
2023/12/03 11:52:08;;;;;;;6.05;3.60;;;16.80;61.20;;;;;;10368133;28;20041;-59
2023/12/03 11:57:14;;;;;;;7.45;3.65;;;16.70;61.10;;;;;;10365985;28;20053;-61
2023/12/03 12:02:15;;;;;;;7.05;3.63;;;16.80;61.30;;;;;;10366134;28;20029;-60
2023/12/03 12:07:17;;;;;;;6.13;4.03;;;16.70;61.10;;;;;;10365634;28;20030;-60
2023/12/03 12:12:19;;;;;;;6.68;4.03;;;16.70;61.10;;;;;;10367005;28;20087;-60
2023/12/03 12:17:20;;;;;;;6.15;4.10;;;16.70;61.10;;;;;;10365273;28;20044;-60
2023/12/03 12:22:21;;;;;;;6.15;3.05;;;16.70;60.90;;;;;;10366301;28;20061;-59
2023/12/03 12:27:22;;;;;;;5.78;3.03;;;16.70;60.90;;;;;;10364753;28;20052;-61
2023/12/03 12:32:22;;;;;;;6.80;3.30;;;16.70;60.70;;;;;;10373751;28;20025;-61
2023/12/03 12:37:23;;;;;;;5.57;3.33;;;16.70;60.70;;;;;;10365054;28;20052;-61
2023/12/03 12:42:26;;;;;;;5.00;3.38;;;16.70;60.70;;;;;;10366596;28;20026;-59
2023/12/03 12:47:37;;;;;;;4.85;3.25;;;16.70;60.50;;;;;;10365760;28;20044;-59
2023/12/03 12:52:39;;;;;;;6.20;3.33;;;16.80;60.90;;;;;;10365333;28;20030;-60
2023/12/03 12:57:39;;;;;;;4.55;3.20;;;16.80;60.20;;;;;;10364527;28;20076;-60
2023/12/03 13:02:42;;;;;;;4.78;2.85;;;16.80;60.00;;;;;;10366087;28;20109;-59
2023/12/03 13:07:43;;;;;;;5.38;3.22;;;16.90;59.80;;;;;;10364285;28;20390;-60
2023/12/03 13:12:43;;;;;;;6.13;3.28;;;17.00;59.30;;;;;;10348115;28;20041;-59
2023/12/03 13:17:49;;;;;;;4.25;2.90;;;17.20;59.00;;;;;;10364530;28;20022;-60
2023/12/03 13:22:50;;;;;;;4.45;2.80;;;17.30;58.70;;;;;;10354962;28;20038;-59
2023/12/03 13:27:51;;;;;;;5.03;3.13;;;17.20;58.70;;;;;;10324685;28;20382;-59
2023/12/03 13:32:52;;;;;;;4.55;2.70;;;17.30;58.50;;;;;;10354343;28;20044;-60
2023/12/03 13:37:53;;;;;;;5.50;2.92;;;17.30;58.40;;;;;;10370881;28;20038;-61
2023/12/03 13:42:54;;;;;;;4.88;3.10;;;17.30;58.60;;;;;;10371183;28;20025;-60
2023/12/03 13:47:55;;;;;;;4.45;3.22;;;17.20;58.60;;;;;;10371678;28;20091;-60
2023/12/03 13:52:56;;;;;;;3.95;2.60;;;17.30;58.50;;;;;;10370745;28;20029;-60
2023/12/03 13:57:57;;;;;;;4.00;2.60;;;17.20;59.20;;;;;;10386807;28;20041;-59
2023/12/03 14:02:58;;;;;;;4.22;3.00;;;17.20;58.60;;;;;;10371673;28;20038;-60
2023/12/03 14:07:58;;;;;;;3.65;2.70;;;17.30;58.50;;;;;;10371307;28;20034;-60
2023/12/03 14:13:00;;;;;;;5.05;3.33;;;17.30;58.40;;;;;;10371528;28;20022;-60
2023/12/03 14:18:01;;;;;;;3.75;2.55;;;17.40;58.20;;;;;;10369720;28;20496;-61
2023/12/03 14:23:02;;;;;;;4.10;2.80;;;17.40;58.00;;;;;;10369966;28;20030;-60
2023/12/03 14:28:03;;;;;;;4.68;2.95;;;17.40;57.90;;;;;;10370550;28;20038;-60
2023/12/03 14:33:04;;;;;;;3.47;2.40;;;17.40;57.90;;;;;;10381679;28;20034;-59
2023/12/03 14:38:04;;;;;;;4.03;2.50;;;17.50;57.80;;;;;;10329937;28;20370;-60
2023/12/03 14:43:05;;;;;;;7.90;3.05;;;17.40;57.80;;;;;;10346911;28;20030;-59
2023/12/03 14:48:06;;;;;;;4.28;2.30;;;17.50;57.80;;;;;;10369715;28;20030;-60
2023/12/03 14:53:06;;;;;;;3.60;2.70;;;17.40;57.70;;;;;;10370075;28;20033;-60
2023/12/03 14:58:07;;;;;;;3.97;2.78;;;17.50;57.70;;;;;;10369202;28;20393;-60
2023/12/03 15:03:08;;;;;;;4.18;2.53;;;17.50;57.70;;;;;;10367942;28;20132;-60
2023/12/03 15:08:08;;;;;;;3.35;2.47;;;17.40;57.40;;;;;;10370162;28;20038;-60
2023/12/03 15:13:09;;;;;;;5.60;2.72;;;17.40;57.70;;;;;;10359469;28;20032;-60
2023/12/03 15:18:10;;;;;;;5.78;3.17;;;17.40;57.70;;;;;;10368298;28;20026;-62
2023/12/03 15:23:11;;;;;;;5.60;2.92;;;17.40;58.10;;;;;;10345257;28;20027;-60
2023/12/03 15:28:11;;;;;;;5.65;3.03;;;17.60;57.60;;;;;;10347441;28;20060;-58
2023/12/03 15:33:13;;;;;;;9.02;3.00;;;17.40;58.40;;;;;;10377278;28;20037;-59
2023/12/03 15:38:14;;;;;;;5.85;2.90;;;17.40;57.90;;;;;;10365138;28;20034;-59
2023/12/03 15:43:14;;;;;;;5.28;2.60;;;17.50;57.60;;;;;;10349390;28;20034;-59
2023/12/03 15:48:15;;;;;;;5.32;2.20;;;17.50;57.50;;;;;;10368084;28;20053;-59
2023/12/03 15:53:17;;;;;;;5.47;2.65;;;17.50;57.50;;;;;;10360524;28;20029;-58
2023/12/03 15:58:18;;;;;;;5.43;2.75;;;17.50;57.50;;;;;;10366635;28;20050;-59
2023/12/03 16:03:19;;;;;;;8.70;3.33;;;17.40;58.30;;;;;;10366744;28;20239;-58
2023/12/03 16:08:20;;;;;;;6.07;2.45;;;17.50;57.90;;;;;;10342659;28;20084;-60
2023/12/03 16:13:21;;;;;;;17.63;3.28;;;17.50;58.20;;;;;;10323234;28;20552;-61
2023/12/03 16:18:21;;;;;;;9.80;3.22;;;17.40;58.20;;;;;;10363582;28;20061;-57
2023/12/03 16:23:23;;;;;;;6.90;3.22;;;17.40;58.00;;;;;;10361217;28;20057;-59
2023/12/03 16:28:24;;;;;;;11.73;3.47;;;17.40;58.30;;;;;;10335891;28;20054;-61
2023/12/03 16:33:24;;;;;;;11.10;3.88;;;17.50;57.90;;;;;;10358265;28;20044;-60
2023/12/03 16:38:25;;;;;;;8.07;3.50;;;17.60;57.50;;;;;;10380152;28;20038;-61
2023/12/03 16:43:28;;;;;;;7.05;3.85;;;17.60;57.30;;;;;;10362946;28;20038;-60
2023/12/03 16:48:29;;;;;;;7.50;3.40;;;17.50;57.20;;;;;;10364945;28;20069;-60
2023/12/03 16:53:29;;;;;;;5.32;2.97;;;17.60;57.40;;;;;;10364139;28;20338;-61
2023/12/03 16:58:30;;;;;;;8.90;3.25;;;17.50;57.30;;;;;;10364113;28;20045;-60
2023/12/03 17:03:31;;;;;;;5.70;3.50;;;17.50;57.40;;;;;;10363642;28;20117;-61
2023/12/03 17:08:32;;;;;;;5.55;2.97;;;17.50;57.50;;;;;;10367839;28;20505;-60
2023/12/03 17:13:33;;;;;;;6.43;3.22;;;17.50;57.50;;;;;;10371088;28;20053;-61
2023/12/03 17:18:34;;;;;;;5.15;2.65;;;17.50;57.30;;;;;;10370283;28;20549;-61
2023/12/03 17:23:34;;;;;;;9.38;3.72;;;17.50;57.30;;;;;;10370935;28;20394;-60
2023/12/03 17:28:35;;;;;;;5.05;2.88;;;17.50;57.20;;;;;;10371347;28;20046;-60
2023/12/03 17:33:37;;;;;;;5.63;2.75;;;17.50;57.00;;;;;;10371804;28;20026;-61
2023/12/03 17:38:37;;;;;;;4.63;3.20;;;17.50;57.00;;;;;;10369612;28;20105;-60
2023/12/03 17:43:38;;;;;;;4.65;2.60;;;17.60;57.00;;;;;;10370175;28;20113;-60
2023/12/03 17:48:39;;;;;;;5.45;2.60;;;17.50;56.90;;;;;;10369317;28;20030;-61
2023/12/03 17:53:40;;;;;;;4.55;2.85;;;17.60;56.90;;;;;;10370500;28;20428;-60
2023/12/03 17:58:41;;;;;;;6.63;2.63;;;17.60;56.90;;;;;;10370516;28;20046;-59
2023/12/03 18:03:42;;;;;;;4.15;2.60;;;17.60;56.90;;;;;;10368625;28;20026;-62
2023/12/03 18:08:42;;;;;;;5.85;2.65;;;17.60;56.70;;;;;;10369560;28;20038;-61
2023/12/03 18:13:43;;;;;;;3.58;2.45;;;17.60;56.90;;;;;;10369172;28;20034;-60
2023/12/03 18:18:44;;;;;;;4.60;2.97;;;17.60;56.70;;;;;;10368673;28;20041;-60
2023/12/03 18:23:45;;;;;;;6.13;2.90;;;17.60;56.80;;;;;;10367895;28;20033;-60
2023/12/03 18:28:45;;;;;;;4.57;2.60;;;17.60;56.70;;;;;;10369301;28;20034;-60
2023/12/03 18:33:46;;;;;;;3.92;2.33;;;17.60;56.80;;;;;;10374803;28;20088;-59
2023/12/03 18:38:47;;;;;;;5.15;2.55;;;17.50;57.00;;;;;;10367668;28;20436;-58
2023/12/03 18:43:48;;;;;;;6.07;2.67;;;17.40;58.20;;;;;;10368421;28;20069;-55
2023/12/03 18:48:49;;;;;;;3.30;2.13;;;17.50;58.20;;;;;;10368300;28;20026;-54
2023/12/03 18:53:50;;;;;;;6.72;2.97;;;17.60;58.20;;;;;;10356068;28;20034;-59
2023/12/03 18:58:50;;;;;;;7.82;3.25;;;17.40;58.30;;;;;;10365607;28;20053;-59
2023/12/03 19:03:51;;;;;;;8.70;2.60;;;17.40;58.50;;;;;;10368175;28;20036;-59
2023/12/03 19:08:52;;;;;;;5.68;2.35;;;17.40;58.60;;;;;;10366383;28;20434;-60
2023/12/03 19:13:52;;;;;;;3.83;2.55;;;17.30;58.50;;;;;;10365404;28;20030;-60
2023/12/03 19:18:53;;;;;;;4.57;2.55;;;17.30;58.60;;;;;;10368340;28;20073;-60
2023/12/03 19:23:54;;;;;;;4.15;2.42;;;17.30;58.40;;;;;;10369505;28;20631;-63
2023/12/03 19:28:55;;;;;;;4.95;2.45;;;17.20;58.50;;;;;;10366792;28;20040;-60
2023/12/03 19:33:59;;;;;;;5.50;2.70;;;17.20;58.70;;;;;;10346362;28;20096;-59
2023/12/03 19:39:00;;;;;;;3.92;2.47;;;17.20;58.70;;;;;;10331628;28;20035;-59
2023/12/03 19:44:01;;;;;;;4.30;2.58;;;17.10;58.80;;;;;;10351309;28;20034;-60
2023/12/03 19:49:02;;;;;;;4.30;2.20;;;17.00;59.00;;;;;;10364987;28;20034;-60
2023/12/03 19:54:02;;;;;;;3.88;2.30;;;17.00;59.30;;;;;;10365684;28;20388;-60
2023/12/03 19:59:03;;;;;;;4.07;2.30;;;16.90;59.60;;;;;;10352072;28;20046;-59
2023/12/03 20:04:04;;;;;;;4.32;2.20;;;16.80;59.90;;;;;;10357611;28;20386;-59
2023/12/03 20:09:06;;;;;;;6.18;2.80;;;16.70;60.20;;;;;;10368554;28;20461;-60
2023/12/03 20:14:09;;;;;;;5.30;2.55;;;16.50;60.30;;;;;;10367953;28;20017;-59
2023/12/03 20:19:09;;;;;;;3.03;2.17;;;16.50;60.50;;;;;;10368214;28;20474;-60
2023/12/03 20:24:10;;;;;;;3.50;2.30;;;16.40;60.70;;;;;;10368248;28;20029;-59
2023/12/03 20:29:11;;;;;;;3.47;2.53;;;16.40;61.50;;;;;;10353204;28;20148;-59
2023/12/03 20:34:12;;;;;;;4.32;2.50;;;16.30;61.00;;;;;;10370624;28;20129;-59
2023/12/03 20:39:13;;;;;;;3.03;2.20;;;16.20;61.10;;;;;;10365811;28;20525;-59
2023/12/03 20:44:14;;;;;;;6.10;2.70;;;16.20;61.20;;;;;;10369534;28;20393;-60
2023/12/03 20:49:15;;;;;;;4.90;2.42;;;16.10;61.40;;;;;;10371811;28;20048;-59
2023/12/03 20:54:16;;;;;;;3.83;2.25;;;16.10;61.50;;;;;;10371367;28;20025;-60
2023/12/03 20:59:16;;;;;;;3.67;2.30;;;16.00;61.60;;;;;;10372369;28;20053;-59
2023/12/03 21:04:17;;;;;;;3.25;2.10;;;16.00;61.80;;;;;;10372163;28;20029;-59
2023/12/03 21:09:18;;;;;;;3.50;2.40;;;15.90;61.90;;;;;;10372018;28;20417;-60
2023/12/03 21:14:19;;;;;;;3.90;2.17;;;15.90;61.90;;;;;;10371332;28;20021;-60
2023/12/03 21:19:20;;;;;;;3.58;2.25;;;15.80;62.00;;;;;;10370662;28;20500;-60
2023/12/03 21:24:20;;;;;;;5.43;2.65;;;15.80;62.00;;;;;;10371710;28;20219;-60
2023/12/03 21:29:24;;;;;;;2.55;2.08;;;15.80;62.00;;;;;;10376270;28;20017;-59
2023/12/03 21:34:25;;;;;;;4.05;2.40;;;15.70;62.10;;;;;;10373409;28;20428;-59
2023/12/03 21:39:25;;;;;;;2.88;2.10;;;15.70;62.20;;;;;;10371683;28;20045;-59
2023/12/03 21:44:26;;;;;;;2.63;1.80;;;15.60;62.20;;;;;;10358602;28;20033;-59
2023/12/03 21:49:27;;;;;;;4.63;2.22;;;15.60;62.30;;;;;;10385690;28;20053;-59
2023/12/03 21:54:28;;;;;;;4.43;2.45;;;15.60;62.40;;;;;;10339630;28;20478;-60
2023/12/03 21:59:28;;;;;;;5.20;2.38;;;15.50;62.30;;;;;;10329698;28;20050;-59
2023/12/03 22:04:29;;;;;;;3.92;2.30;;;15.50;62.40;;;;;;10360401;28;20029;-60
2023/12/03 22:09:30;;;;;;;3.88;2.75;;;15.50;62.40;;;;;;10369795;28;20034;-59
2023/12/03 22:14:31;;;;;;;3.08;2.00;;;15.50;63.00;;;;;;10369246;28;20300;-59
2023/12/03 22:19:31;;;;;;;3.80;2.50;;;15.40;62.40;;;;;;10369639;28;20033;-60
2023/12/03 22:24:32;;;;;;;3.97;2.53;;;15.40;62.30;;;;;;10368791;28;20045;-59
2023/12/03 22:29:33;;;;;;;4.18;2.10;;;15.40;62.50;;;;;;10375288;28;20488;-60
2023/12/03 22:34:34;;;;;;;3.50;2.20;;;15.40;62.60;;;;;;10368595;28;20456;-59
2023/12/03 22:39:34;;;;;;;4.07;2.60;;;15.30;62.40;;;;;;10368475;28;20041;-59
2023/12/03 22:44:35;;;;;;;4.00;2.60;;;15.30;62.50;;;;;;10367967;28;20470;-59
2023/12/03 22:49:36;;;;;;;3.05;2.38;;;15.30;62.40;;;;;;10367041;28;20481;-58
2023/12/03 22:54:36;;;;;;;4.18;2.65;;;15.30;62.50;;;;;;10367500;28;20036;-59
2023/12/03 22:59:37;;;;;;;2.83;2.05;;;15.30;62.50;;;;;;10368233;28;20099;-59
2023/12/03 23:04:38;;;;;;;2.90;1.95;;;15.20;62.50;;;;;;10365541;28;20037;-60
2023/12/03 23:09:38;;;;;;;3.08;1.92;;;15.20;62.60;;;;;;10366146;28;20033;-59
2023/12/03 23:14:39;;;;;;;3.60;2.50;;;15.20;62.60;;;;;;10367183;28;20030;-59
2023/12/03 23:19:40;;;;;;;2.42;1.83;;;15.20;62.50;;;;;;10365789;28;20026;-59
2023/12/03 23:24:40;;;;;;;3.60;2.55;;;15.10;62.60;;;;;;10366968;28;20029;-60
2023/12/03 23:29:42;;;;;;;3.65;2.45;;;15.20;62.70;;;;;;10372863;28;20021;-59
2023/12/03 23:34:42;;;;;;;3.55;2.22;;;15.10;62.70;;;;;;10364333;28;20404;-59
2023/12/03 23:39:43;;;;;;;3.60;2.42;;;15.10;62.70;;;;;;10326006;28;20033;-59
2023/12/03 23:44:44;;;;;;;4.80;2.10;;;15.10;62.80;;;;;;10357366;28;20444;-59
2023/12/03 23:49:44;;;;;;;3.83;2.28;;;15.10;62.80;;;;;;10366130;28;20157;-60
2023/12/03 23:54:45;;;;;;;3.45;2.05;;;15.00;62.80;;;;;;10361052;28;20026;-59
2023/12/03 23:59:46;;;;;;;3.85;2.72;;;15.00;62.70;;;;;;10325151;28;20061;-59
